sensor_id;sensor_type;location;lat;lon;timestamp;pressure;altitude;pressure_sealevel;temperature;humidity
64080;BME280;51042;49.696;10.808;2023-03-19T00:00:08;98132.38;;;6.45;100.00
64080;BME280;51042;49.696;10.808;2023-03-19T00:02:34;98136.63;;;6.46;100.00
64080;BME280;51042;49.696;10.808;2023-03-19T00:04:59;98134.31;;;6.44;100.00
64080;BME280;51042;49.696;10.808;2023-03-19T00:07:25;98134.78;;;6.39;100.00
64080;BME280;51042;49.696;10.808;2023-03-19T00:09:50;98148.59;;;6.29;100.00
64080;BME280;51042;49.696;10.808;2023-03-19T00:12:16;98142.91;;;6.20;100.00
64080;BME280;51042;49.696;10.808;2023-03-19T00:14:41;98150.75;;;6.14;100.00
64080;BME280;51042;49.696;10.808;2023-03-19T00:17:06;98150.44;;;6.08;100.00
64080;BME280;51042;49.696;10.808;2023-03-19T00:19:31;98153.22;;;6.05;100.00
64080;BME280;51042;49.696;10.808;2023-03-19T00:21:56;98140.78;;;6.04;100.00
64080;BME280;51042;49.696;10.808;2023-03-19T00:24:22;98141.53;;;6.04;100.00
64080;BME280;51042;49.696;10.808;2023-03-19T00:26:47;98145.44;;;6.03;100.00
64080;BME280;51042;49.696;10.808;2023-03-19T00:29:13;98141.19;;;6.02;100.00
64080;BME280;51042;49.696;10.808;2023-03-19T00:31:38;98141.59;;;6.01;100.00
64080;BME280;51042;49.696;10.808;2023-03-19T00:34:04;98142.78;;;6.00;100.00
64080;BME280;51042;49.696;10.808;2023-03-19T00:36:30;98147.84;;;5.98;100.00
64080;BME280;51042;49.696;10.808;2023-03-19T00:38:55;98144.81;;;5.92;100.00
64080;BME280;51042;49.696;10.808;2023-03-19T00:41:21;98151.88;;;5.90;100.00
64080;BME280;51042;49.696;10.808;2023-03-19T00:43:46;98150.69;;;5.91;100.00
64080;BME280;51042;49.696;10.808;2023-03-19T00:46:12;98141.00;;;5.90;100.00
64080;BME280;51042;49.696;10.808;2023-03-19T00:48:37;98143.97;;;5.99;100.00
64080;BME280;51042;49.696;10.808;2023-03-19T00:51:03;98137.28;;;6.03;100.00
64080;BME280;51042;49.696;10.808;2023-03-19T00:53:29;98146.50;;;6.13;100.00
64080;BME280;51042;49.696;10.808;2023-03-19T00:55:54;98151.97;;;6.09;100.00
64080;BME280;51042;49.696;10.808;2023-03-19T00:58:20;98157.22;;;5.97;100.00
64080;BME280;51042;49.696;10.808;2023-03-19T01:00:45;98149.88;;;5.94;100.00
64080;BME280;51042;49.696;10.808;2023-03-19T01:03:10;98149.50;;;5.92;100.00
64080;BME280;51042;49.696;10.808;2023-03-19T01:05:35;98149.16;;;5.90;100.00
64080;BME280;51042;49.696;10.808;2023-03-19T01:08:00;98142.56;;;5.87;100.00
64080;BME280;51042;49.696;10.808;2023-03-19T01:10:26;98153.47;;;5.87;100.00
64080;BME280;51042;49.696;10.808;2023-03-19T01:12:52;98150.75;;;5.84;100.00
64080;BME280;51042;49.696;10.808;2023-03-19T01:15:17;98146.59;;;5.75;100.00
64080;BME280;51042;49.696;10.808;2023-03-19T01:17:42;98143.16;;;5.68;100.00
64080;BME280;51042;49.696;10.808;2023-03-19T01:20:08;98144.41;;;5.63;100.00
64080;BME280;51042;49.696;10.808;2023-03-19T01:22:37;98148.38;;;5.55;100.00
64080;BME280;51042;49.696;10.808;2023-03-19T01:25:03;98147.28;;;5.49;100.00
64080;BME280;51042;49.696;10.808;2023-03-19T01:27:29;98156.22;;;5.50;100.00
64080;BME280;51042;49.696;10.808;2023-03-19T01:29:54;98156.19;;;5.53;100.00
64080;BME280;51042;49.696;10.808;2023-03-19T01:32:20;98156.53;;;5.59;100.00
64080;BME280;51042;49.696;10.808;2023-03-19T01:34:45;98160.78;;;5.60;100.00
64080;BME280;51042;49.696;10.808;2023-03-19T01:37:10;98153.38;;;5.60;100.00
64080;BME280;51042;49.696;10.808;2023-03-19T01:39:36;98161.50;;;5.64;100.00
64080;BME280;51042;49.696;10.808;2023-03-19T01:42:02;98164.59;;;5.66;100.00
64080;BME280;51042;49.696;10.808;2023-03-19T01:44:29;98163.00;;;5.68;100.00
64080;BME280;51042;49.696;10.808;2023-03-19T01:46:54;98154.44;;;5.70;100.00
64080;BME280;51042;49.696;10.808;2023-03-19T01:49:21;98160.66;;;5.70;100.00
64080;BME280;51042;49.696;10.808;2023-03-19T01:51:47;98163.41;;;5.67;100.00
64080;BME280;51042;49.696;10.808;2023-03-19T01:54:13;98161.13;;;5.62;100.00
64080;BME280;51042;49.696;10.808;2023-03-19T01:56:39;98168.59;;;5.58;100.00
64080;BME280;51042;49.696;10.808;2023-03-19T01:59:16;98163.94;;;5.55;100.00
64080;BME280;51042;49.696;10.808;2023-03-19T02:01:46;98164.25;;;5.60;100.00
64080;BME280;51042;49.696;10.808;2023-03-19T02:04:15;98157.59;;;5.65;100.00
64080;BME280;51042;49.696;10.808;2023-03-19T02:06:40;98158.00;;;5.63;100.00
64080;BME280;51042;49.696;10.808;2023-03-19T02:09:06;98164.69;;;5.59;100.00
64080;BME280;51042;49.696;10.808;2023-03-19T02:11:32;98158.16;;;5.49;100.00
64080;BME280;51042;49.696;10.808;2023-03-19T02:13:57;98166.44;;;5.42;100.00
64080;BME280;51042;49.696;10.808;2023-03-19T02:16:22;98158.38;;;5.31;100.00
64080;BME280;51042;49.696;10.808;2023-03-19T02:18:48;98158.50;;;5.21;100.00
64080;BME280;51042;49.696;10.808;2023-03-19T02:21:14;98150.81;;;5.12;100.00
64080;BME280;51042;49.696;10.808;2023-03-19T02:26:08;98153.19;;;5.07;100.00
64080;BME280;51042;49.696;10.808;2023-03-19T02:28:35;98147.00;;;5.06;100.00
64080;BME280;51042;49.696;10.808;2023-03-19T02:31:02;98151.66;;;5.06;100.00
64080;BME280;51042;49.696;10.808;2023-03-19T02:33:28;98148.19;;;5.05;100.00
64080;BME280;51042;49.696;10.808;2023-03-19T02:35:53;98152.06;;;5.04;100.00
64080;BME280;51042;49.696;10.808;2023-03-19T02:38:19;98160.59;;;5.06;100.00
64080;BME280;51042;49.696;10.808;2023-03-19T02:40:51;98152.78;;;5.08;100.00
64080;BME280;51042;49.696;10.808;2023-03-19T02:43:19;98159.78;;;5.09;100.00
64080;BME280;51042;49.696;10.808;2023-03-19T02:45:45;98162.91;;;5.08;100.00
64080;BME280;51042;49.696;10.808;2023-03-19T02:48:10;98158.22;;;5.08;100.00
64080;BME280;51042;49.696;10.808;2023-03-19T02:50:35;98164.06;;;5.07;100.00
64080;BME280;51042;49.696;10.808;2023-03-19T02:53:00;98162.91;;;5.08;100.00
64080;BME280;51042;49.696;10.808;2023-03-19T02:55:25;98165.63;;;5.08;100.00
64080;BME280;51042;49.696;10.808;2023-03-19T02:57:51;98164.84;;;5.07;100.00
64080;BME280;51042;49.696;10.808;2023-03-19T03:00:16;98165.28;;;5.06;100.00
64080;BME280;51042;49.696;10.808;2023-03-19T03:02:42;98176.50;;;5.08;100.00
64080;BME280;51042;49.696;10.808;2023-03-19T03:05:08;98175.69;;;5.11;100.00
64080;BME280;51042;49.696;10.808;2023-03-19T03:07:33;98176.81;;;5.13;100.00
64080;BME280;51042;49.696;10.808;2023-03-19T03:09:58;98171.75;;;5.15;100.00
64080;BME280;51042;49.696;10.808;2023-03-19T03:12:23;98179.53;;;5.17;100.00
64080;BME280;51042;49.696;10.808;2023-03-19T03:14:48;98181.47;;;5.16;100.00
64080;BME280;51042;49.696;10.808;2023-03-19T03:17:14;98183.81;;;5.14;100.00
64080;BME280;51042;49.696;10.808;2023-03-19T03:19:39;98177.59;;;5.14;100.00
64080;BME280;51042;49.696;10.808;2023-03-19T03:22:05;98185.81;;;5.10;100.00
64080;BME280;51042;49.696;10.808;2023-03-19T03:24:30;98191.25;;;5.07;100.00
64080;BME280;51042;49.696;10.808;2023-03-19T03:26:55;98188.59;;;5.03;100.00
64080;BME280;51042;49.696;10.808;2023-03-19T03:29:20;98193.75;;;4.94;100.00
64080;BME280;51042;49.696;10.808;2023-03-19T03:31:45;98200.34;;;4.89;100.00
64080;BME280;51042;49.696;10.808;2023-03-19T03:34:11;98200.00;;;4.87;100.00
64080;BME280;51042;49.696;10.808;2023-03-19T03:36:36;98200.78;;;4.84;100.00
64080;BME280;51042;49.696;10.808;2023-03-19T03:39:01;98202.34;;;4.85;100.00
64080;BME280;51042;49.696;10.808;2023-03-19T03:41:26;98207.00;;;4.85;100.00
64080;BME280;51042;49.696;10.808;2023-03-19T03:43:51;98193.47;;;4.81;100.00
64080;BME280;51042;49.696;10.808;2023-03-19T03:46:17;98201.28;;;4.76;100.00
64080;BME280;51042;49.696;10.808;2023-03-19T03:48:42;98198.56;;;4.72;100.00
64080;BME280;51042;49.696;10.808;2023-03-19T03:51:07;98202.44;;;4.71;100.00
64080;BME280;51042;49.696;10.808;2023-03-19T03:53:32;98204.00;;;4.72;100.00
64080;BME280;51042;49.696;10.808;2023-03-19T03:55:57;98201.69;;;4.71;100.00
64080;BME280;51042;49.696;10.808;2023-03-19T03:58:23;98200.88;;;4.74;100.00
64080;BME280;51042;49.696;10.808;2023-03-19T04:00:48;98205.94;;;4.75;100.00
64080;BME280;51042;49.696;10.808;2023-03-19T04:03:13;98204.75;;;4.76;100.00
64080;BME280;51042;49.696;10.808;2023-03-19T04:05:38;98225.72;;;4.76;100.00
64080;BME280;51042;49.696;10.808;2023-03-19T04:08:06;98212.53;;;4.74;100.00
64080;BME280;51042;49.696;10.808;2023-03-19T04:10:31;98218.75;;;4.75;100.00
64080;BME280;51042;49.696;10.808;2023-03-19T04:12:57;98217.94;;;4.78;100.00
64080;BME280;51042;49.696;10.808;2023-03-19T04:15:22;98213.66;;;4.77;100.00
64080;BME280;51042;49.696;10.808;2023-03-19T04:17:47;98220.66;;;4.78;100.00
64080;BME280;51042;49.696;10.808;2023-03-19T04:20:12;98211.72;;;4.77;100.00
64080;BME280;51042;49.696;10.808;2023-03-19T04:22:40;98212.88;;;4.80;100.00
64080;BME280;51042;49.696;10.808;2023-03-19T04:25:05;98218.66;;;4.85;100.00
64080;BME280;51042;49.696;10.808;2023-03-19T04:27:32;98220.22;;;4.86;100.00
64080;BME280;51042;49.696;10.808;2023-03-19T04:29:57;98210.09;;;4.87;100.00
64080;BME280;51042;49.696;10.808;2023-03-19T04:32:22;98224.03;;;4.92;100.00
64080;BME280;51042;49.696;10.808;2023-03-19T04:34:48;98230.94;;;5.04;100.00
64080;BME280;51042;49.696;10.808;2023-03-19T04:37:14;98227.38;;;5.11;100.00
64080;BME280;51042;49.696;10.808;2023-03-19T04:39:39;98227.34;;;5.14;100.00
64080;BME280;51042;49.696;10.808;2023-03-19T04:42:04;98222.72;;;5.11;100.00
64080;BME280;51042;49.696;10.808;2023-03-19T04:44:30;98226.22;;;5.08;100.00
64080;BME280;51042;49.696;10.808;2023-03-19T04:46:56;98230.44;;;5.13;100.00
64080;BME280;51042;49.696;10.808;2023-03-19T04:49:21;98232.78;;;5.14;100.00
64080;BME280;51042;49.696;10.808;2023-03-19T04:51:46;98224.25;;;5.12;100.00
64080;BME280;51042;49.696;10.808;2023-03-19T04:54:11;98235.50;;;5.14;100.00
64080;BME280;51042;49.696;10.808;2023-03-19T04:56:36;98237.44;;;5.17;100.00
64080;BME280;51042;49.696;10.808;2023-03-19T04:59:02;98234.66;;;5.21;100.00
64080;BME280;51042;49.696;10.808;2023-03-19T05:01:27;98238.53;;;5.23;100.00
64080;BME280;51042;49.696;10.808;2023-03-19T05:03:52;98243.94;;;5.27;100.00
64080;BME280;51042;49.696;10.808;2023-03-19T05:06:17;98240.44;;;5.26;100.00
64080;BME280;51042;49.696;10.808;2023-03-19T05:08:43;98253.31;;;5.22;100.00
64080;BME280;51042;49.696;10.808;2023-03-19T05:11:09;98250.59;;;5.19;100.00
64080;BME280;51042;49.696;10.808;2023-03-19T05:13:35;98253.31;;;5.22;100.00
64080;BME280;51042;49.696;10.808;2023-03-19T05:16:00;98252.91;;;5.24;100.00
64080;BME280;51042;49.696;10.808;2023-03-19T05:18:25;98253.31;;;5.22;100.00
64080;BME280;51042;49.696;10.808;2023-03-19T05:20:51;98259.47;;;5.26;100.00
64080;BME280;51042;49.696;10.808;2023-03-19T05:23:17;98257.56;;;5.23;100.00
64080;BME280;51042;49.696;10.808;2023-03-19T05:25:43;98251.31;;;5.26;100.00
64080;BME280;51042;49.696;10.808;2023-03-19T05:28:08;98254.41;;;5.28;100.00
64080;BME280;51042;49.696;10.808;2023-03-19T05:30:34;98260.63;;;5.29;100.00
64080;BME280;51042;49.696;10.808;2023-03-19T05:32:59;98257.16;;;5.25;100.00
64080;BME280;51042;49.696;10.808;2023-03-19T05:35:26;98292.91;;;5.27;100.00
64080;BME280;51042;49.696;10.808;2023-03-19T05:37:52;98303.69;;;5.38;100.00
64080;BME280;51042;49.696;10.808;2023-03-19T05:40:17;98301.72;;;5.42;100.00
64080;BME280;51042;49.696;10.808;2023-03-19T05:42:42;98305.22;;;5.42;100.00
64080;BME280;51042;49.696;10.808;2023-03-19T05:45:08;98306.69;;;5.50;100.00
64080;BME280;51042;49.696;10.808;2023-03-19T05:47:33;98310.56;;;5.49;100.00
64080;BME280;51042;49.696;10.808;2023-03-19T05:49:59;98312.44;;;5.56;100.00
64080;BME280;51042;49.696;10.808;2023-03-19T05:52:24;98319.38;;;5.64;100.00
64080;BME280;51042;49.696;10.808;2023-03-19T05:54:49;98313.91;;;5.67;100.00
64080;BME280;51042;49.696;10.808;2023-03-19T05:57:15;98311.94;;;5.68;100.00
64080;BME280;51042;49.696;10.808;2023-03-19T05:59:40;98324.00;;;5.70;100.00
64080;BME280;51042;49.696;10.808;2023-03-19T06:02:05;98316.94;;;5.73;100.00
64080;BME280;51042;49.696;10.808;2023-03-19T06:04:31;98322.78;;;5.75;100.00
64080;BME280;51042;49.696;10.808;2023-03-19T06:06:56;98321.16;;;5.81;100.00
64080;BME280;51042;49.696;10.808;2023-03-19T06:09:21;98324.59;;;5.85;100.00
64080;BME280;51042;49.696;10.808;2023-03-19T06:11:46;98335.06;;;5.90;100.00
64080;BME280;51042;49.696;10.808;2023-03-19T06:14:12;98326.84;;;5.97;100.00
64080;BME280;51042;49.696;10.808;2023-03-19T06:16:37;98337.66;;;6.04;100.00
64080;BME280;51042;49.696;10.808;2023-03-19T06:19:02;98348.16;;;6.06;100.00
64080;BME280;51042;49.696;10.808;2023-03-19T06:21:27;98341.09;;;6.12;100.00
64080;BME280;51042;49.696;10.808;2023-03-19T06:23:57;98350.84;;;6.09;100.00
64080;BME280;51042;49.696;10.808;2023-03-19T06:26:23;98350.06;;;6.09;100.00
64080;BME280;51042;49.696;10.808;2023-03-19T06:28:48;98353.09;;;6.18;100.00
64080;BME280;51042;49.696;10.808;2023-03-19T06:31:13;98349.28;;;6.08;100.00
64080;BME280;51042;49.696;10.808;2023-03-19T06:33:38;98351.59;;;6.13;100.00
64080;BME280;51042;49.696;10.808;2023-03-19T06:36:04;98350.34;;;6.18;100.00
64080;BME280;51042;49.696;10.808;2023-03-19T06:38:29;98352.22;;;6.25;100.00
64080;BME280;51042;49.696;10.808;2023-03-19T06:40:54;98353.69;;;6.33;100.00
64080;BME280;51042;49.696;10.808;2023-03-19T06:43:19;98349.91;;;6.23;100.00
64080;BME280;51042;49.696;10.808;2023-03-19T06:45:45;98355.69;;;6.29;100.00
64080;BME280;51042;49.696;10.808;2023-03-19T06:48:11;98348.97;;;6.37;100.00
64080;BME280;51042;49.696;10.808;2023-03-19T06:50:36;98359.78;;;6.44;100.00
64080;BME280;51042;49.696;10.808;2023-03-19T06:53:01;98364.03;;;6.45;100.00
64080;BME280;51042;49.696;10.808;2023-03-19T06:55:26;98356.56;;;6.52;100.00
64080;BME280;51042;49.696;10.808;2023-03-19T06:57:51;98357.25;;;6.60;100.00
64080;BME280;51042;49.696;10.808;2023-03-19T07:00:17;98359.06;;;6.70;100.00
64080;BME280;51042;49.696;10.808;2023-03-19T07:02:42;98363.34;;;6.68;100.00
64080;BME280;51042;49.696;10.808;2023-03-19T07:05:07;98373.09;;;6.69;100.00
64080;BME280;51042;49.696;10.808;2023-03-19T07:07:33;98372.63;;;6.74;100.00
64080;BME280;51042;49.696;10.808;2023-03-19T07:09:58;98380.31;;;6.82;100.00
64080;BME280;51042;49.696;10.808;2023-03-19T07:12:23;98383.75;;;6.86;100.00
64080;BME280;51042;49.696;10.808;2023-03-19T07:14:51;98381.78;;;6.90;100.00
64080;BME280;51042;49.696;10.808;2023-03-19T07:17:17;98390.75;;;6.91;100.00
64080;BME280;51042;49.696;10.808;2023-03-19T07:19:42;98398.56;;;6.89;100.00
64080;BME280;51042;49.696;10.808;2023-03-19T07:22:07;98399.66;;;6.91;100.00
64080;BME280;51042;49.696;10.808;2023-03-19T07:24:32;98405.91;;;6.92;100.00
64080;BME280;51042;49.696;10.808;2023-03-19T07:26:57;98417.91;;;6.98;100.00
64080;BME280;51042;49.696;10.808;2023-03-19T07:29:23;98420.22;;;7.00;100.00
64080;BME280;51042;49.696;10.808;2023-03-19T07:31:48;98429.91;;;7.04;100.00
64080;BME280;51042;49.696;10.808;2023-03-19T07:34:13;98426.31;;;7.11;100.00
64080;BME280;51042;49.696;10.808;2023-03-19T07:36:38;98421.91;;;7.20;100.00
64080;BME280;51042;49.696;10.808;2023-03-19T07:39:03;98418.28;;;7.27;100.00
64080;BME280;51042;49.696;10.808;2023-03-19T07:41:28;98430.16;;;7.40;100.00
64080;BME280;51042;49.696;10.808;2023-03-19T07:43:53;98428.47;;;7.50;100.00
64080;BME280;51042;49.696;10.808;2023-03-19T07:46:19;98434.97;;;7.59;100.00
64080;BME280;51042;49.696;10.808;2023-03-19T07:48:44;98435.66;;;7.63;100.00
64080;BME280;51042;49.696;10.808;2023-03-19T07:51:09;98429.78;;;7.65;100.00
64080;BME280;51042;49.696;10.808;2023-03-19T07:53:35;98439.16;;;7.64;100.00
64080;BME280;51042;49.696;10.808;2023-03-19T07:56:00;98437.19;;;7.68;100.00
64080;BME280;51042;49.696;10.808;2023-03-19T07:58:25;98438.66;;;7.72;100.00
64080;BME280;51042;49.696;10.808;2023-03-19T08:00:51;98436.59;;;7.80;100.00
64080;BME280;51042;49.696;10.808;2023-03-19T08:03:17;98436.09;;;7.85;100.00
64080;BME280;51042;49.696;10.808;2023-03-19T08:05:42;98441.56;;;7.85;100.00
64080;BME280;51042;49.696;10.808;2023-03-19T08:08:07;98435.69;;;7.87;100.00
64080;BME280;51042;49.696;10.808;2023-03-19T08:10:32;98436.09;;;7.85;100.00
64080;BME280;51042;49.696;10.808;2023-03-19T08:12:57;98438.84;;;7.85;100.00
64080;BME280;51042;49.696;10.808;2023-03-19T08:15:23;98449.69;;;7.89;100.00
64080;BME280;51042;49.696;10.808;2023-03-19T08:17:48;98437.50;;;7.93;100.00
64080;BME280;51042;49.696;10.808;2023-03-19T08:20:14;98447.22;;;7.98;100.00
64080;BME280;51042;49.696;10.808;2023-03-19T08:22:43;98450.00;;;7.94;100.00
64080;BME280;51042;49.696;10.808;2023-03-19T08:25:12;98455.88;;;7.93;100.00
64080;BME280;51042;49.696;10.808;2023-03-19T08:27:38;98463.66;;;7.94;100.00
64080;BME280;51042;49.696;10.808;2023-03-19T08:30:04;98467.53;;;7.97;100.00
64080;BME280;51042;49.696;10.808;2023-03-19T08:32:31;98461.69;;;7.95;100.00
64080;BME280;51042;49.696;10.808;2023-03-19T08:34:56;98461.34;;;7.93;100.00
64080;BME280;51042;49.696;10.808;2023-03-19T08:37:21;98455.47;;;7.94;100.00
64080;BME280;51042;49.696;10.808;2023-03-19T08:39:48;98454.66;;;7.97;100.00
64080;BME280;51042;49.696;10.808;2023-03-19T08:42:14;98463.19;;;7.99;100.00
64080;BME280;51042;49.696;10.808;2023-03-19T08:44:40;98463.13;;;8.03;100.00
64080;BME280;51042;49.696;10.808;2023-03-19T08:47:05;98461.50;;;8.05;100.00
64080;BME280;51042;49.696;10.808;2023-03-19T08:49:30;98463.06;;;8.06;100.00
64080;BME280;51042;49.696;10.808;2023-03-19T08:51:55;98465.75;;;8.10;100.00
64080;BME280;51042;49.696;10.808;2023-03-19T08:54:20;98478.94;;;8.15;100.00
64080;BME280;51042;49.696;10.808;2023-03-19T08:56:46;98481.56;;;8.22;100.00
64080;BME280;51042;49.696;10.808;2023-03-19T08:59:11;98480.63;;;8.32;100.00
64080;BME280;51042;49.696;10.808;2023-03-19T09:01:36;98487.38;;;8.47;100.00
64080;BME280;51042;49.696;10.808;2023-03-19T09:04:02;98483.25;;;8.59;100.00
64080;BME280;51042;49.696;10.808;2023-03-19T09:06:27;98486.13;;;8.72;100.00
64080;BME280;51042;49.696;10.808;2023-03-19T09:08:52;98487.56;;;8.80;100.00
64080;BME280;51042;49.696;10.808;2023-03-19T09:11:17;98490.47;;;8.89;100.00
64080;BME280;51042;49.696;10.808;2023-03-19T09:13:43;98489.44;;;9.02;100.00
64080;BME280;51042;49.696;10.808;2023-03-19T09:16:08;98488.78;;;9.15;100.00
64080;BME280;51042;49.696;10.808;2023-03-19T09:18:33;98496.44;;;9.23;100.00
64080;BME280;51042;49.696;10.808;2023-03-19T09:20:59;98504.75;;;9.36;100.00
64080;BME280;51042;49.696;10.808;2023-03-19T09:23:24;98505.38;;;9.43;100.00
64080;BME280;51042;49.696;10.808;2023-03-19T09:25:50;98504.38;;;9.54;100.00
64080;BME280;51042;49.696;10.808;2023-03-19T09:28:16;98505.41;;;9.60;100.00
64080;BME280;51042;49.696;10.808;2023-03-19T09:36:13;98497.31;;;9.36;100.00
64080;BME280;51042;49.696;10.808;2023-03-19T09:38:40;98500.03;;;9.20;100.00
64080;BME280;51042;49.696;10.808;2023-03-19T09:46:22;98508.88;;;9.28;100.00
64080;BME280;51042;49.696;10.808;2023-03-19T09:48:56;98513.16;;;9.29;100.00
64080;BME280;51042;49.696;10.808;2023-03-19T09:51:28;98521.38;;;9.29;100.00
64080;BME280;51042;49.696;10.808;2023-03-19T09:53:59;98515.66;;;9.39;100.00
64080;BME280;51042;49.696;10.808;2023-03-19T09:56:25;98517.03;;;9.48;100.00
64080;BME280;51042;49.696;10.808;2023-03-19T09:58:51;98520.38;;;9.55;100.00
64080;BME280;51042;49.696;10.808;2023-03-19T10:01:24;98515.84;;;9.49;100.00
64080;BME280;51042;49.696;10.808;2023-03-19T10:06:29;98511.19;;;9.81;100.00
64080;BME280;51042;49.696;10.808;2023-03-19T10:09:09;98512.13;;;10.07;100.00
64080;BME280;51042;49.696;10.808;2023-03-19T10:17:09;98507.66;;;10.62;100.00
64080;BME280;51042;49.696;10.808;2023-03-19T10:22:27;98515.56;;;10.44;100.00
64080;BME280;51042;49.696;10.808;2023-03-19T10:24:55;98508.59;;;10.72;100.00
64080;BME280;51042;49.696;10.808;2023-03-19T10:27:22;98513.72;;;10.98;100.00
64080;BME280;51042;49.696;10.808;2023-03-19T10:29:50;98502.56;;;11.18;100.00
64080;BME280;51042;49.696;10.808;2023-03-19T10:32:19;98507.97;;;11.34;100.00
64080;BME280;51042;49.696;10.808;2023-03-19T10:34:45;98502.69;;;11.27;100.00
64080;BME280;51042;49.696;10.808;2023-03-19T10:39:38;98506.69;;;11.52;100.00
64080;BME280;51042;49.696;10.808;2023-03-19T10:44:50;98496.59;;;11.74;100.00
64080;BME280;51042;49.696;10.808;2023-03-19T10:47:16;98491.97;;;11.58;100.00
64080;BME280;51042;49.696;10.808;2023-03-19T10:49:44;98498.66;;;11.70;100.00
64080;BME280;51042;49.696;10.808;2023-03-19T10:52:16;98492.53;;;11.91;100.00
64080;BME280;51042;49.696;10.808;2023-03-19T10:54:43;98483.94;;;12.14;100.00
64080;BME280;51042;49.696;10.808;2023-03-19T10:57:20;98485.28;;;11.97;100.00
64080;BME280;51042;49.696;10.808;2023-03-19T10:59:45;98482.19;;;11.82;100.00
64080;BME280;51042;49.696;10.808;2023-03-19T11:02:21;98478.88;;;11.50;100.00
64080;BME280;51042;49.696;10.808;2023-03-19T11:04:47;98479.63;;;11.50;100.00
64080;BME280;51042;49.696;10.808;2023-03-19T11:07:13;98479.63;;;11.63;100.00
64080;BME280;51042;49.696;10.808;2023-03-19T11:09:39;98474.94;;;11.76;100.00
64080;BME280;51042;49.696;10.808;2023-03-19T11:12:23;98472.72;;;11.96;100.00
64080;BME280;51042;49.696;10.808;2023-03-19T11:14:51;98478.53;;;11.98;100.00
64080;BME280;51042;49.696;10.808;2023-03-19T11:17:21;98480.78;;;11.91;100.00
64080;BME280;51042;49.696;10.808;2023-03-19T11:19:57;98472.06;;;11.92;100.00
64080;BME280;51042;49.696;10.808;2023-03-19T11:22:30;98474.03;;;12.04;100.00
64080;BME280;51042;49.696;10.808;2023-03-19T11:24:59;98470.97;;;12.02;100.00
64080;BME280;51042;49.696;10.808;2023-03-19T11:27:31;98466.53;;;12.05;100.00
64080;BME280;51042;49.696;10.808;2023-03-19T11:29:58;98473.88;;;12.33;100.00
64080;BME280;51042;49.696;10.808;2023-03-19T11:32:36;98475.75;;;12.58;100.00
64080;BME280;51042;49.696;10.808;2023-03-19T11:35:31;98462.69;;;12.71;100.00
64080;BME280;51042;49.696;10.808;2023-03-19T11:37:56;98458.03;;;13.02;100.00
64080;BME280;51042;49.696;10.808;2023-03-19T11:40:33;98459.72;;;13.22;100.00
64080;BME280;51042;49.696;10.808;2023-03-19T11:50:43;98433.41;;;13.08;100.00
64080;BME280;51042;49.696;10.808;2023-03-19T12:00:49;98443.94;;;14.11;94.56
64080;BME280;51042;49.696;10.808;2023-03-19T12:03:25;98434.94;;;14.56;92.03
64080;BME280;51042;49.696;10.808;2023-03-19T12:06:03;98425.59;;;15.32;89.71
64080;BME280;51042;49.696;10.808;2023-03-19T12:13:47;98422.41;;;15.67;78.68
64080;BME280;51042;49.696;10.808;2023-03-19T12:19:02;98417.94;;;15.27;84.35
64080;BME280;51042;49.696;10.808;2023-03-19T12:26:41;98413.75;;;15.32;81.79
64080;BME280;51042;49.696;10.808;2023-03-19T12:29:30;98416.16;;;14.97;82.58
64080;BME280;51042;49.696;10.808;2023-03-19T12:34:44;98417.16;;;13.72;88.01
64080;BME280;51042;49.696;10.808;2023-03-19T12:37:14;98403.97;;;13.58;91.13
64080;BME280;51042;49.696;10.808;2023-03-19T12:39:42;98400.56;;;13.54;91.58
64080;BME280;51042;49.696;10.808;2023-03-19T12:42:11;98400.91;;;13.25;91.83
64080;BME280;51042;49.696;10.808;2023-03-19T12:44:39;98402.09;;;13.55;93.51
64080;BME280;51042;49.696;10.808;2023-03-19T12:47:12;98391.88;;;13.64;90.17
64080;BME280;51042;49.696;10.808;2023-03-19T12:49:47;98394.44;;;14.17;91.30
64080;BME280;51042;49.696;10.808;2023-03-19T12:54:49;98383.44;;;15.79;79.32
64080;BME280;51042;49.696;10.808;2023-03-19T12:57:20;98375.38;;;16.14;76.19
64080;BME280;51042;49.696;10.808;2023-03-19T13:02:22;98371.59;;;14.53;79.64
64080;BME280;51042;49.696;10.808;2023-03-19T13:04:50;98375.72;;;14.12;83.22
64080;BME280;51042;49.696;10.808;2023-03-19T13:07:31;98372.03;;;14.24;81.48
64080;BME280;51042;49.696;10.808;2023-03-19T13:12:31;98368.53;;;15.11;75.64
64080;BME280;51042;49.696;10.808;2023-03-19T13:15:59;98373.22;;;15.29;76.83
64080;BME280;51042;49.696;10.808;2023-03-19T13:20:48;98359.91;;;16.22;71.39
64080;BME280;51042;49.696;10.808;2023-03-19T13:23:18;98368.88;;;16.56;72.80
64080;BME280;51042;49.696;10.808;2023-03-19T13:25:45;98369.09;;;16.96;69.87
64080;BME280;51042;49.696;10.808;2023-03-19T13:28:19;98372.25;;;17.19;66.28
64080;BME280;51042;49.696;10.808;2023-03-19T13:33:30;98354.50;;;15.66;67.73
64080;BME280;51042;49.696;10.808;2023-03-19T13:35:57;98360.81;;;15.24;72.59
64080;BME280;51042;49.696;10.808;2023-03-19T13:40:52;98352.97;;;14.81;70.69
64080;BME280;51042;49.696;10.808;2023-03-19T13:46:25;98345.97;;;14.34;73.76
64080;BME280;51042;49.696;10.808;2023-03-19T13:48:50;98346.25;;;14.54;74.30
64080;BME280;51042;49.696;10.808;2023-03-19T13:56:31;98355.03;;;15.04;71.57
64080;BME280;51042;49.696;10.808;2023-03-19T14:01:43;98350.34;;;15.61;70.46
64080;BME280;51042;49.696;10.808;2023-03-19T14:09:38;98345.44;;;16.04;69.53
64080;BME280;51042;49.696;10.808;2023-03-19T14:14:58;98340.78;;;16.10;69.13
64080;BME280;51042;49.696;10.808;2023-03-19T14:17:27;98344.19;;;16.28;68.61
64080;BME280;51042;49.696;10.808;2023-03-19T14:19:54;98339.28;;;16.62;66.07